Time;durP1;ratioP1;P1;durP2;ratioP2;P2;SDS_P1;SDS_P2;PMS_P1;PMS_P2;Temp;Humidity;BMP_temperature;BMP_pressure;BME280_temperature;BME280_humidity;BME280_pressure;Samples;Min_cycle;Max_cycle;Signal;HPM_P1;HPM_P2
2023/05/16 00:00:53;;;;;;;25.57;17.07;;;;;;;-143.21;87.32;71963.13;5073097;28;20205;-78
2023/05/16 00:03:20;;;;;;;25.20;16.73;;;;;;;-143.21;87.88;71969.06;5073013;28;20194;-79
2023/05/16 00:05:47;;;;;;;25.67;16.97;;;;;;;-143.21;88.44;71971.06;5073009;28;20197;-79
2023/05/16 00:08:14;;;;;;;25.83;17.90;;;;;;;-143.21;88.58;71969.06;5073315;28;20194;-79
2023/05/16 00:10:40;;;;;;;26.50;16.47;;;;;;;-143.21;88.69;71963.13;5072924;28;20224;-79
2023/05/16 00:13:08;;;;;;;23.33;17.33;;;;;;;-143.21;88.89;71967.09;5072268;28;20251;-80
2023/05/16 00:15:37;;;;;;;24.13;17.30;;;;;;;-143.21;88.86;71969.06;5072617;28;20208;-79
2023/05/16 00:18:04;;;;;;;26.60;17.40;;;;;;;-143.21;89.47;71975.00;5072931;28;20204;-79
2023/05/16 00:20:31;;;;;;;25.80;17.77;;;;;;;-143.21;89.85;71978.97;5072554;28;20663;-81
2023/05/16 00:22:59;;;;;;;26.43;17.90;;;;;;;-143.21;90.02;71980.97;5091856;28;20733;-82
2023/05/16 00:25:27;;;;;;;26.10;18.27;;;;;;;-143.21;90.63;72002.78;5112931;28;20237;-82
2023/05/16 00:27:53;;;;;;;34.57;18.43;;;;;;;-143.21;90.69;72036.50;5113056;28;20296;-81
2023/05/16 00:30:21;;;;;;;32.47;18.80;;;;;;;-143.21;91.65;72058.31;5113360;28;20226;-81
2023/05/16 00:32:49;;;;;;;27.70;18.60;;;;;;;-143.21;94.02;72066.22;5113020;28;20196;-82
2023/05/16 00:35:16;;;;;;;28.40;19.33;;;;;;;-143.21;95.25;72054.34;5112774;28;20196;-82
2023/05/16 00:37:43;;;;;;;32.60;20.33;;;;;;;-143.21;95.42;72034.50;5113087;28;20191;-82
2023/05/16 00:40:11;;;;;;;34.43;20.13;;;;;;;-143.21;95.08;72034.50;5113146;28;20200;-85
2023/05/16 00:42:38;;;;;;;29.37;19.97;;;;;;;-143.21;94.45;72018.63;5112901;28;20278;-85
2023/05/16 00:45:06;;;;;;;29.53;19.23;;;;;;;-143.21;94.40;72012.69;5112548;28;20200;-85
2023/05/16 00:47:33;;;;;;;28.20;19.37;;;;;;;-143.21;94.49;72000.78;5112700;28;20731;-85
2023/05/16 00:50:01;;;;;;;28.27;19.27;;;;;;;-143.21;94.28;71990.88;5112553;28;20227;-85
2023/05/16 00:52:28;;;;;;;25.87;18.13;;;;;;;-143.21;93.80;71984.94;5107922;28;20201;-85
2023/05/16 00:54:55;;;;;;;27.80;19.17;;;;;;;-143.21;94.02;71978.97;5092949;28;20193;-83
2023/05/16 00:57:22;;;;;;;28.27;18.70;;;;;;;-143.21;93.23;71969.06;5096747;28;20196;-83
2023/05/16 00:59:50;;;;;;;24.07;18.60;;;;;;;-143.21;92.77;71967.09;5095026;28;20189;-82
2023/05/16 01:02:16;;;;;;;27.60;17.70;;;;;;;-143.21;92.72;71961.13;5095791;28;20258;-82
2023/05/16 01:04:44;;;;;;;26.63;17.60;;;;;;;-143.21;92.43;71959.16;5093081;28;20673;-84
2023/05/16 01:07:12;;;;;;;24.23;18.40;;;;;;;-143.21;92.34;71949.25;5092331;28;20188;-84
2023/05/16 01:09:39;;;;;;;23.57;17.07;;;;;;;-143.21;92.22;71947.25;5092385;28;20216;-83
2023/05/16 01:12:15;;;;;;;22.87;17.17;;;;;;;-143.21;92.09;71955.19;5092635;28;20196;-84
2023/05/16 01:14:49;;;;;;;23.70;16.97;;;;;;;-143.21;91.83;71945.28;5092086;28;20678;-84
2023/05/16 01:17:22;;;;;;;24.80;17.17;;;;;;;-143.21;91.43;71941.31;5091991;28;20626;-84
2023/05/16 01:20:03;;;;;;;23.83;17.07;;;;;;;-143.21;91.74;71935.34;5092187;28;20203;-84
2023/05/16 01:22:47;;;;;;;21.90;16.53;;;;;;;-143.21;91.27;71929.41;5092009;28;20240;-84
2023/05/16 01:25:27;;;;;;;22.93;17.00;;;;;;;-143.21;91.19;71935.34;5092161;28;20189;-84
2023/05/16 01:27:57;;;;;;;21.20;16.27;;;;;;;-143.21;91.10;71921.47;5092629;28;20626;-84
2023/05/16 01:30:24;;;;;;;20.03;16.77;;;;;;;-143.21;90.72;71915.53;5092029;28;20209;-84
2023/05/16 01:32:51;;;;;;;23.83;17.43;;;;;;;-143.21;90.87;71911.56;5092160;28;20199;-84
2023/05/16 01:35:18;;;;;;;25.90;17.37;;;;;;;-143.21;90.53;71909.56;5091647;28;20192;-84
2023/05/16 01:37:50;;;;;;;25.53;18.20;;;;;;;-143.21;90.37;71911.56;5091713;28;20196;-84
2023/05/16 01:40:28;;;;;;;24.37;17.53;;;;;;;-143.21;90.42;71901.66;5091674;28;20746;-80
2023/05/16 01:43:00;;;;;;;23.20;16.87;;;;;;;-143.21;90.18;71889.75;5091735;28;20193;-80
2023/05/16 01:45:32;;;;;;;24.37;16.77;;;;;;;-143.21;90.38;71893.72;5091277;28;20193;-80
2023/05/16 01:48:04;;;;;;;24.10;17.23;;;;;;;-143.21;90.23;71893.72;5091933;28;20519;-80
2023/05/16 01:50:36;;;;;;;25.47;16.83;;;;;;;-143.21;90.07;71933.38;5091644;28;20201;-80
2023/05/16 01:53:07;;;;;;;19.57;16.57;;;;;;;-143.21;90.90;71978.97;5091449;28;20204;-81
2023/05/16 01:55:41;;;;;;;24.37;17.47;;;;;;;-143.21;93.94;71986.91;5091628;28;20181;-81
2023/05/16 01:58:11;;;;;;;27.37;18.57;;;;;;;-143.21;94.22;71980.97;5091230;28;20262;-80
2023/05/16 02:00:37;;;;;;;26.63;18.50;;;;;;;-143.21;93.83;71971.06;5091454;28;20189;-81
2023/05/16 02:03:07;;;;;;;32.67;20.37;;;;;;;-143.21;93.43;71971.06;5091206;28;20201;-81
2023/05/16 02:05:34;;;;;;;30.27;19.57;;;;;;;-143.21;93.47;71971.06;5091960;28;20188;-81
2023/05/16 02:08:01;;;;;;;27.90;19.23;;;;;;;-143.21;93.45;71967.09;5091714;28;20201;-80
2023/05/16 02:10:28;;;;;;;27.77;18.80;;;;;;;-143.21;93.65;71971.06;5091365;28;20216;-80
2023/05/16 02:12:55;;;;;;;31.67;18.80;;;;;;;-143.21;92.62;71955.19;5091314;28;20197;-81
2023/05/16 02:15:23;;;;;;;32.03;19.07;;;;;;;-143.21;92.61;71965.09;5091389;28;20576;-81
2023/05/16 02:17:50;;;;;;;39.23;19.13;;;;;;;-143.21;92.63;71955.19;5091552;28;20188;-80
2023/05/16 02:20:17;;;;;;;28.40;19.90;;;;;;;-143.21;92.67;71945.28;5091661;28;20196;-81
2023/05/16 02:22:46;;;;;;;28.73;18.97;;;;;;;-143.21;92.20;71951.22;5083793;28;20229;-80
2023/05/16 02:25:14;;;;;;;27.23;18.50;;;;;;;-143.21;92.52;71961.13;5071284;28;20193;-87
2023/05/16 02:27:42;;;;;;;31.07;19.10;;;;;;;-143.21;92.86;71967.09;5072259;28;20259;-88
2023/05/16 02:30:10;;;;;;;31.57;19.67;;;;;;;-143.21;93.09;71975.00;5071284;28;20300;-80
2023/05/16 02:32:39;;;;;;;34.43;19.37;;;;;;;-143.21;93.58;71977.00;5071057;28;20190;-81
2023/05/16 02:35:06;;;;;;;28.93;19.33;;;;;;;-143.21;93.73;71973.03;5070957;28;20190;-81
2023/05/16 02:37:33;;;;;;;31.40;21.63;;;;;;;-143.21;92.97;71971.06;5071199;28;20246;-81
2023/05/16 02:40:00;;;;;;;29.37;20.67;;;;;;;-143.21;93.06;71978.97;5071055;28;20201;-82
2023/05/16 02:42:28;;;;;;;29.60;20.70;;;;;;;-143.21;92.89;71978.97;5070842;28;20263;-80
2023/05/16 02:44:55;;;;;;;28.40;20.47;;;;;;;-143.21;93.01;71977.00;5071253;28;20201;-80
2023/05/16 02:47:21;;;;;;;33.87;20.07;;;;;;;-143.21;93.07;71971.06;5071048;28;20284;-80
2023/05/16 02:49:51;;;;;;;30.73;20.57;;;;;;;-143.21;93.10;71967.09;5071142;28;20221;-80
2023/05/16 02:52:17;;;;;;;29.47;20.77;;;;;;;-143.21;93.00;71953.19;5071005;28;20236;-80
2023/05/16 02:54:44;;;;;;;31.47;19.40;;;;;;;-143.21;93.49;71951.22;5071057;28;20208;-80
2023/05/16 02:57:11;;;;;;;26.47;18.90;;;;;;;-143.21;93.61;71955.19;5070506;28;20584;-80
2023/05/16 02:59:38;;;;;;;30.33;18.73;;;;;;;-143.21;93.48;71953.19;5070881;28;20674;-81
2023/05/16 03:02:05;;;;;;;29.37;19.83;;;;;;;-143.21;93.55;71951.22;5070636;28;20194;-81
2023/05/16 03:04:32;;;;;;;30.13;19.67;;;;;;;-143.21;93.31;71951.22;5070912;28;20198;-80
2023/05/16 03:07:00;;;;;;;34.77;20.10;;;;;;;-143.21;93.33;71951.22;5070647;28;20777;-80
2023/05/16 03:09:27;;;;;;;26.93;18.30;;;;;;;-143.21;93.39;71953.19;5070624;28;20194;-78
2023/05/16 03:11:54;;;;;;;32.73;18.90;;;;;;;-143.21;93.13;71947.25;5070336;28;20213;-79
2023/05/16 03:14:20;;;;;;;31.60;18.93;;;;;;;-143.21;93.18;71941.31;5072255;28;20194;-79
2023/05/16 03:16:47;;;;;;;29.13;19.10;;;;;;;-143.21;93.15;71943.28;5073530;28;20197;-79
2023/05/16 03:19:14;;;;;;;27.53;18.67;;;;;;;-143.21;92.82;71963.13;5073612;28;20197;-78
2023/05/16 03:21:41;;;;;;;26.07;18.33;;;;;;;-143.21;93.52;72002.78;5073847;28;20193;-78
2023/05/16 03:24:10;;;;;;;28.87;18.83;;;;;;;-143.21;93.65;72024.59;5112413;28;20288;-79
2023/05/16 03:26:37;;;;;;;28.00;19.73;;;;;;;-143.21;95.93;72038.47;5114295;28;20203;-78
2023/05/16 03:29:04;;;;;;;38.93;21.07;;;;;;;-143.21;96.82;72032.53;5114304;28;20257;-78
2023/05/16 03:31:32;;;;;;;27.23;20.60;;;;;;;-143.21;97.54;72018.63;5114472;28;20266;-78
2023/05/16 03:33:58;;;;;;;30.83;20.73;;;;;;;-143.21;97.12;72006.75;5114419;28;20222;-83
2023/05/16 03:36:25;;;;;;;41.07;21.90;;;;;;;-143.21;96.65;71990.88;5114364;28;20196;-83
2023/05/16 03:38:52;;;;;;;33.83;21.57;;;;;;;-143.21;96.24;71977.00;5114365;28;20192;-82
2023/05/16 03:41:21;;;;;;;31.03;21.60;;;;;;;-143.21;95.48;71965.09;5114149;28;20249;-83
2023/05/16 03:43:47;;;;;;;33.30;20.50;;;;;;;-143.21;95.49;71959.16;5114507;28;20291;-82
2023/05/16 03:46:14;;;;;;;32.07;19.87;;;;;;;-143.21;94.28;71955.19;5114617;28;20192;-83
2023/05/16 03:48:41;;;;;;;33.23;20.13;;;;;;;-143.21;94.25;71955.19;5114080;28;20579;-78
2023/05/16 03:51:08;;;;;;;35.73;20.53;;;;;;;-143.21;93.83;71953.19;5113579;28;20223;-79
2023/05/16 03:53:35;;;;;;;25.37;18.87;;;;;;;-143.21;93.78;71945.28;5098792;28;20333;-77
2023/05/16 03:56:02;;;;;;;30.57;20.57;;;;;;;-143.21;93.95;71943.28;5093384;28;20275;-77
2023/05/16 03:58:31;;;;;;;30.57;20.50;;;;;;;-143.21;94.22;71945.28;5092995;28;20197;-77
2023/05/16 04:00:58;;;;;;;34.17;23.37;;;;;;;-143.21;93.60;71941.31;5093122;28;20193;-77
2023/05/16 04:03:27;;;;;;;36.40;24.23;;;;;;;-143.21;93.49;71941.31;5092842;28;20203;-76
2023/05/16 04:05:54;;;;;;;42.87;24.97;;;;;;;-143.21;93.13;71939.31;5093032;28;20209;-78
2023/05/16 04:08:21;;;;;;;36.23;23.67;;;;;;;-143.21;92.90;71935.34;5093415;28;20240;-79
2023/05/16 04:10:48;;;;;;;32.93;21.90;;;;;;;-143.21;92.68;71937.34;5092755;28;20247;-79
2023/05/16 04:13:15;;;;;;;37.90;21.23;;;;;;;-143.21;92.18;71939.31;5093565;28;20189;-80
2023/05/16 04:15:43;;;;;;;34.47;20.10;;;;;;;-143.21;92.31;71947.25;5092802;28;20541;-78
2023/05/16 04:18:10;;;;;;;29.87;20.60;;;;;;;-143.21;92.84;71955.19;5092760;28;20266;-78
2023/05/16 04:20:37;;;;;;;33.13;22.17;;;;;;;-143.21;92.99;71945.28;5092562;28;20228;-79
2023/05/16 04:23:04;;;;;;;42.13;22.43;;;;;;;-143.21;92.72;71941.31;5092281;28;20236;-79
2023/05/16 04:25:31;;;;;;;32.93;23.10;;;;;;;-143.21;92.55;71947.25;5091579;28;20665;-79
2023/05/16 04:27:58;;;;;;;35.67;23.00;;;;;;;-143.21;92.61;71939.31;5092382;28;20716;-79
2023/05/16 04:30:25;;;;;;;35.63;22.87;;;;;;;-143.21;92.81;71935.34;5092648;28;20217;-79
2023/05/16 04:32:53;;;;;;;34.80;23.20;;;;;;;-143.21;92.97;71933.38;5092212;28;20221;-79
2023/05/16 04:35:20;;;;;;;43.97;23.17;;;;;;;-143.21;92.97;71927.44;5092071;28;20647;-78
2023/05/16 04:37:47;;;;;;;37.07;24.20;;;;;;;-143.21;92.79;71929.41;5092384;28;20226;-79
2023/05/16 04:40:14;;;;;;;41.93;24.23;;;;;;;-143.21;93.10;71929.41;5092518;28;20192;-81
2023/05/16 04:42:41;;;;;;;40.53;24.13;;;;;;;-143.21;93.29;71929.41;5092446;28;20203;-80
2023/05/16 04:45:10;;;;;;;32.60;23.90;;;;;;;-143.21;93.38;71945.28;5092161;28;20612;-80
2023/05/16 04:47:37;;;;;;;37.47;24.80;;;;;;;-143.21;92.95;71978.97;5092274;28;20240;-84
2023/05/16 04:50:08;;;;;;;45.70;30.87;;;;;;;-143.21;95.07;72000.78;5092043;28;20265;-82
2023/05/16 04:52:35;;;;;;;44.13;26.83;;;;;;;-143.21;96.70;71994.84;5092107;28;20591;-82
2023/05/16 04:55:03;;;;;;;42.90;26.63;;;;;;;-143.21;97.06;71984.94;5092113;28;20193;-82
2023/05/16 04:57:29;;;;;;;36.93;26.00;;;;;;;-143.21;97.11;71973.03;5092462;28;20250;-81
2023/05/16 04:59:56;;;;;;;49.53;27.23;;;;;;;-143.21;96.89;71961.13;5092204;28;20185;-82
2023/05/16 05:02:23;;;;;;;50.47;27.77;;;;;;;-143.21;96.63;71953.19;5092560;28;20614;-81
2023/05/16 05:04:50;;;;;;;51.93;26.87;;;;;;;-143.21;96.49;71941.31;5090036;28;20587;-81
2023/05/16 05:07:18;;;;;;;48.07;25.80;;;;;;;-143.21;96.08;71939.31;5077011;28;20196;-80
2023/05/16 05:09:45;;;;;;;39.83;23.73;;;;;;;-143.21;95.36;71941.31;5076131;28;20270;-81
2023/05/16 05:12:14;;;;;;;37.87;22.13;;;;;;;-143.21;94.76;71929.41;5071350;28;20217;-81
2023/05/16 05:14:41;;;;;;;34.47;18.33;;;;;;;-143.21;94.62;71931.38;5071574;28;20205;-81
2023/05/16 05:17:08;;;;;;;28.27;17.73;;;;;;;-143.21;93.96;71923.47;5071651;28;20197;-81
2023/05/16 05:19:35;;;;;;;31.13;17.40;;;;;;;-143.21;93.26;71907.59;5071487;28;20208;-82
2023/05/16 05:22:01;;;;;;;38.03;17.90;;;;;;;-143.21;92.76;71909.56;5105272;28;20197;-82
2023/05/16 05:24:29;;;;;;;25.90;17.17;;;;;;;-143.21;92.28;71895.69;5091667;28;20185;-82
2023/05/16 05:26:56;;;;;;;24.30;16.77;;;;;;;-143.21;91.42;71891.72;5091812;28;20204;-82
2023/05/16 05:29:23;;;;;;;23.80;16.10;;;;;;;-143.21;91.03;71877.84;5092085;28;20189;-88
2023/05/16 05:31:50;;;;;;;21.33;15.60;;;;;;;-143.21;90.07;71863.97;5091648;28;20220;-88
2023/05/16 05:34:17;;;;;;;26.17;15.47;;;;;;;-143.21;89.84;71856.03;5091984;28;20565;-87
2023/05/16 05:36:44;;;;;;;28.37;15.53;;;;;;;-143.21;88.77;71846.13;5091716;28;20549;-88
2023/05/16 05:39:11;;;;;;;25.93;15.67;;;;;;;-143.21;89.03;71842.16;5091293;28;20228;-87
2023/05/16 05:41:39;;;;;;;29.50;16.70;;;;;;;-143.21;89.12;71828.28;5078743;28;20193;-88
2023/05/16 05:44:06;;;;;;;28.17;16.40;;;;;;;-143.21;88.68;71824.31;5071528;28;20190;-82
2023/05/16 05:46:34;;;;;;;31.10;16.63;;;;;;;-143.21;88.58;71814.41;5071189;28;20201;-81
2023/05/16 05:49:01;;;;;;;26.77;15.90;;;;;;;-143.21;87.93;71808.44;5089521;28;20196;-82
2023/05/16 05:51:28;;;;;;;21.90;15.67;;;;;;;-143.21;88.27;71810.44;5091225;28;20220;-82
2023/05/16 05:53:55;;;;;;;26.83;15.80;;;;;;;-143.21;87.34;71800.53;5091770;28;20231;-80
2023/05/16 05:56:23;;;;;;;31.50;15.67;;;;;;;-143.21;86.66;71798.53;5091707;28;20220;-83
2023/05/16 05:58:51;;;;;;;22.90;15.57;;;;;;;-143.21;86.69;71798.53;5091061;28;20729;-84
2023/05/16 06:01:19;;;;;;;26.10;15.27;;;;;;;-143.21;87.06;71784.66;5091408;28;20621;-85
2023/05/16 06:03:47;;;;;;;21.83;14.73;;;;;;;-143.21;86.41;71810.44;5090472;28;20196;-85
2023/05/16 06:06:14;;;;;;;22.20;15.00;;;;;;;-143.21;86.48;71838.19;5091163;28;20658;-85
2023/05/16 06:08:42;;;;;;;26.07;15.23;;;;;;;-143.21;89.75;71863.97;5091729;28;20250;-85
2023/05/16 06:11:09;;;;;;;25.77;15.87;;;;;;;-143.21;90.04;71860.00;5091601;28;20227;-86
2023/05/16 06:13:35;;;;;;;22.80;15.07;;;;;;;-143.21;90.13;71854.06;5091740;28;20258;-84
2023/05/16 06:16:04;;;;;;;26.27;15.23;;;;;;;-143.21;89.70;71832.25;5091676;28;20189;-83
2023/05/16 06:18:31;;;;;;;23.00;15.80;;;;;;;-143.21;88.80;71816.38;5091569;28;20193;-85
2023/05/16 06:20:58;;;;;;;22.63;14.57;;;;;;;-143.21;88.54;71804.47;5092338;28;20192;-84
2023/05/16 06:23:25;;;;;;;25.53;15.27;;;;;;;-143.21;87.51;71788.63;5091213;28;20240;-84
2023/05/16 06:25:51;;;;;;;23.53;16.10;;;;;;;-143.21;86.77;71772.75;5090807;28;20188;-83
2023/05/16 06:28:18;;;;;;;27.73;14.20;;;;;;;-143.21;86.04;71772.75;5090835;28;20193;-82
2023/05/16 06:30:46;;;;;;;21.43;13.17;;;;;;;-143.21;85.95;71774.75;5090787;28;20225;-82
2023/05/16 06:33:15;;;;;;;22.73;14.07;;;;;;;-143.21;85.55;71760.88;5091018;28;20196;-81
2023/05/16 06:35:42;;;;;;;23.10;13.13;;;;;;;-143.21;85.62;71764.81;5090953;28;20281;-81
2023/05/16 06:38:08;;;;;;;22.80;13.17;;;;;;;-143.21;84.85;71752.94;5090601;28;20199;-82
2023/05/16 06:40:38;;;;;;;22.47;12.03;;;;;;;-143.21;84.44;71746.97;5091034;28;20204;-82
2023/05/16 06:43:05;;;;;;;22.07;13.27;;;;;;;-143.21;84.38;71745.00;5090904;28;20197;-82
2023/05/16 06:45:31;;;;;;;18.27;12.37;;;;;;;-143.21;84.46;71748.97;5091408;28;20197;-81
2023/05/16 06:47:58;;;;;;;27.60;13.47;;;;;;;-143.21;84.17;71737.06;5091502;28;20197;-82
2023/05/16 06:50:27;;;;;;;22.10;11.90;;;;;;;-143.21;83.93;71737.06;5095084;28;20204;-82
2023/05/16 06:52:53;;;;;;;18.70;12.13;;;;;;;-143.21;83.18;71727.16;5094911;28;20200;-83
2023/05/16 06:55:39;;;;;;;17.40;11.83;;;;;;;-143.21;83.36;71717.25;5079437;28;20206;-82
2023/05/16 06:58:05;;;;;;;20.57;11.67;;;;;;;-143.21;82.69;71697.41;5080515;28;20193;-81
2023/05/16 07:00:32;;;;;;;19.67;11.73;;;;;;;-143.21;82.88;71701.38;5094498;28;20204;-82
2023/05/16 07:02:59;;;;;;;18.47;11.57;;;;;;;-143.21;83.28;71705.34;5096588;28;20630;-82
2023/05/16 07:05:28;;;;;;;24.27;12.27;;;;;;;-143.21;82.73;71695.44;5085211;28;20196;-83
2023/05/16 07:07:55;;;;;;;18.83;11.73;;;;;;;-143.21;82.58;71685.50;5090044;28;20201;-82
2023/05/16 07:10:26;;;;;;;21.33;11.90;;;;;;;-143.21;82.56;71681.56;5093169;28;20193;-82
2023/05/16 07:12:52;;;;;;;23.27;11.20;;;;;;;-143.21;82.81;71669.66;5094479;28;20201;-81
2023/05/16 07:15:19;;;;;;;20.27;10.80;;;;;;;-143.21;82.21;71661.72;5094189;28;20197;-82
2023/05/16 07:17:46;;;;;;;16.50;10.33;;;;;;;-143.21;81.84;71657.75;5094169;28;20199;-81
2023/05/16 07:20:13;;;;;;;18.10;10.50;;;;;;;-143.21;81.10;71657.75;5093774;28;20184;-83
2023/05/16 07:22:42;;;;;;;16.90;10.17;;;;;;;-143.21;81.50;71689.47;5095231;28;20267;-83
2023/05/16 07:25:11;;;;;;;17.80;11.37;;;;;;;-143.21;84.33;71685.50;5093384;28;20205;-82
2023/05/16 07:27:40;;;;;;;16.00;10.67;;;;;;;-143.21;83.57;71685.50;5093958;28;20595;-84
2023/05/16 07:30:08;;;;;;;17.70;10.33;;;;;;;-143.21;82.76;71673.63;5095864;28;20682;-83
2023/05/16 07:32:36;;;;;;;18.07;10.73;;;;;;;-143.21;82.22;71665.69;5093577;28;20255;-81
2023/05/16 07:35:03;;;;;;;17.37;9.77;;;;;;;-143.21;81.82;71651.81;5093760;28;20189;-86
2023/05/16 07:37:31;;;;;;;21.80;10.43;;;;;;;-143.21;80.64;71630.00;5094077;28;20193;-85
2023/05/16 07:39:59;;;;;;;15.73;10.43;;;;;;;-143.21;79.94;71626.03;5084897;28;20212;-82
2023/05/16 07:42:26;;;;;;;15.27;10.40;;;;;;;-143.21;79.72;71622.06;5086235;28;20201;-81
2023/05/16 07:44:53;;;;;;;15.93;11.13;;;;;;;-143.21;79.52;71620.09;5075478;28;20276;-81
2023/05/16 07:47:20;;;;;;;20.97;10.23;;;;;;;-143.21;78.82;71612.16;5090361;28;20200;-82
2023/05/16 07:49:46;;;;;;;18.53;10.17;;;;;;;-143.21;78.58;71596.28;5080149;28;20213;-83
2023/05/16 07:52:13;;;;;;;15.73;9.77;;;;;;;-143.21;78.47;71584.41;5084330;28;20228;-82
2023/05/16 07:54:40;;;;;;;30.77;11.03;;;;;;;-143.21;77.79;71580.44;5087241;28;20209;-82
2023/05/16 07:57:08;;;;;;;15.30;9.93;;;;;;;-143.21;77.50;71568.53;5090949;28;20201;-82
2023/05/16 07:59:35;;;;;;;21.07;9.57;;;;;;;-143.21;77.12;71562.59;5083414;28;20208;-82
2023/05/16 08:02:02;;;;;;;23.63;10.00;;;;;;;-143.21;76.65;71544.75;5082200;28;20626;-82
2023/05/16 08:04:29;;;;;;;14.43;9.47;;;;;;;-143.21;76.86;71548.72;5076804;28;20209;-81
2023/05/16 08:06:56;;;;;;;19.20;9.97;;;;;;;-143.21;76.39;71534.81;5080218;28;20196;-81
2023/05/16 08:09:23;;;;;;;14.77;9.83;;;;;;;-143.21;76.49;71518.97;5076961;28;20208;-81
2023/05/16 08:11:50;;;;;;;20.90;10.33;;;;;;;-143.21;76.00;71513.03;5079500;28;20250;-80
2023/05/16 08:14:18;;;;;;;19.83;10.90;;;;;;;-143.21;76.13;71499.13;5080890;28;20208;-81
2023/05/16 08:16:45;;;;;;;18.50;10.33;;;;;;;-143.21;76.08;71497.16;5087423;28;20209;-81
2023/05/16 08:19:12;;;;;;;13.27;9.57;;;;;;;-143.21;76.64;71485.25;5077939;28;20244;-81
2023/05/16 08:21:39;;;;;;;16.70;9.97;;;;;;;-143.21;76.17;71489.22;5077275;28;20205;-81
2023/05/16 08:24:07;;;;;;;15.60;9.47;;;;;;;-143.21;75.85;71471.38;5076365;28;20252;-82
2023/05/16 08:26:34;;;;;;;15.37;9.87;;;;;;;-143.21;75.27;71461.47;5074679;28;20597;-82
2023/05/16 08:29:01;;;;;;;13.27;9.97;;;;;;;-143.21;75.04;71459.47;5080075;28;20231;-83
2023/05/16 08:31:29;;;;;;;15.23;10.40;;;;;;;-143.21;75.06;71451.56;5082887;28;20282;-81
2023/05/16 08:33:56;;;;;;;13.87;9.43;;;;;;;-143.21;75.30;71497.16;5082736;28;20201;-80
2023/05/16 08:36:23;;;;;;;19.27;9.93;;;;;;;-143.21;76.84;71536.81;5080096;28;20197;-82
2023/05/16 08:38:50;;;;;;;22.77;10.80;;;;;;;-143.21;77.01;71544.75;5083630;28;20208;-83
2023/05/16 08:41:17;;;;;;;19.23;9.83;;;;;;;-143.21;76.48;71530.88;5082217;28;20209;-81
2023/05/16 08:43:45;;;;;;;16.80;9.83;;;;;;;-143.21;76.10;71509.06;5093421;28;20652;-86
2023/05/16 08:46:12;;;;;;;13.57;9.80;;;;;;;-143.21;75.84;71487.25;5088201;28;20208;-83
2023/05/16 08:48:46;;;;;;;21.03;10.37;;;;;;;-143.21;74.96;71451.56;5079273;28;20212;-83
2023/05/16 08:51:15;;;;;;;18.90;10.00;;;;;;;-143.21;73.83;71437.69;5089276;28;20662;-84
2023/05/16 08:53:46;;;;;;;14.37;9.77;;;;;;;-143.21;73.26;71407.94;5082104;28;20205;-84
2023/05/16 08:56:14;;;;;;;15.87;9.40;;;;;;;-143.21;72.79;71409.91;5079497;28;20197;-83
2023/05/16 08:58:42;;;;;;;14.43;8.93;;;;;;;-143.21;71.89;71394.06;5083912;28;20200;-85
2023/05/16 09:01:09;;;;;;;15.47;9.20;;;;;;;-143.21;71.89;71396.03;5085101;28;20204;-83
2023/05/16 09:03:37;;;;;;;21.03;9.00;;;;;;;-143.21;71.81;71380.19;5086604;28;20199;-83
2023/05/16 09:06:06;;;;;;;14.33;8.87;;;;;;;-143.21;71.06;71374.22;5079789;28;20595;-84
2023/05/16 09:08:33;;;;;;;20.40;8.98;;;;;;;-143.21;70.95;71362.34;5084240;28;20196;-84
2023/05/16 09:11:01;;;;;;;16.73;8.68;;;;;;;-143.21;70.52;71356.38;5082341;28;20206;-83
2023/05/16 09:13:28;;;;;;;16.30;8.85;;;;;;;-143.21;70.51;71348.47;5086708;28;20255;-83
2023/05/16 09:16:11;;;;;;;14.25;9.00;;;;;;;-143.21;70.06;71328.63;5079416;28;20205;-82
2023/05/16 09:18:39;;;;;;;16.85;8.73;;;;;;;-143.21;70.55;71334.59;5073911;28;20201;-78
2023/05/16 09:21:07;;;;;;;10.63;8.55;;;;;;;-143.21;69.91;71336.56;5081029;28;20219;-78
2023/05/16 09:23:35;;;;;;;16.38;9.57;;;;;;;-143.21;70.00;71332.59;5087293;28;20323;-81
2023/05/16 09:26:02;;;;;;;18.52;8.77;;;;;;;-143.21;70.01;71334.59;5093382;28;20211;-82
2023/05/16 09:28:29;;;;;;;15.90;9.18;;;;;;;-143.21;69.99;71324.66;5090931;28;20228;-81
2023/05/16 09:30:58;;;;;;;18.33;9.77;;;;;;;-143.21;69.42;71320.69;5090358;28;20566;-81
2023/05/16 09:33:27;;;;;;;17.50;9.18;;;;;;;-143.21;68.87;71314.75;5090244;28;20309;-82
2023/05/16 09:35:58;;;;;;;14.00;8.65;;;;;;;-143.21;69.03;71304.84;5090146;28;20220;-82
2023/05/16 09:38:28;;;;;;;16.08;8.32;;;;;;;-143.21;69.02;71285.03;5087163;28;20212;-82
2023/05/16 09:40:55;;;;;;;15.27;8.43;;;;;;;-143.21;69.24;71285.03;5090774;28;20258;-93
2023/05/16 09:43:25;;;;;;;18.17;8.55;;;;;;;-143.21;68.61;71285.03;5089631;28;20224;-78
2023/05/16 09:45:52;;;;;;;16.33;8.57;;;;;;;-143.21;68.48;71287.00;5094888;28;20197;-79
2023/05/16 09:48:22;;;;;;;14.20;8.98;;;;;;;-143.21;69.55;71328.63;5090195;28;20208;-84
2023/05/16 09:50:52;;;;;;;15.23;9.02;;;;;;;-143.21;71.17;71405.94;5092391;28;20213;-87
2023/05/16 09:53:25;;;;;;;15.43;8.90;;;;;;;-143.21;72.01;71392.06;5095512;28;20232;-86
2023/05/16 09:56:02;;;;;;;16.83;8.65;;;;;;;-143.21;71.47;71370.28;5098049;28;20196;-88
2023/05/16 09:58:30;;;;;;;15.77;9.13;;;;;;;-143.21;70.96;71348.47;5104719;28;20206;-87
2023/05/16 10:00:58;;;;;;;14.98;8.40;;;;;;;-143.21;70.42;71312.78;5114927;28;20222;-88
2023/05/16 10:03:25;;;;;;;16.45;9.20;;;;;;;-143.21;69.70;71292.94;5099535;28;20205;-87
2023/05/16 10:05:53;;;;;;;14.88;9.38;;;;;;;-143.21;69.55;71285.03;5097770;28;20208;-86
2023/05/16 10:08:22;;;;;;;16.10;9.52;;;;;;;-143.21;69.11;71263.22;5092702;28;20204;-87
2023/05/16 10:10:51;;;;;;;14.77;9.13;;;;;;;-143.21;68.20;71261.22;5099356;28;20232;-83
2023/05/16 10:13:21;;;;;;;16.35;8.80;;;;;;;-143.21;68.11;71253.28;5093039;28;20678;-87
2023/05/16 10:15:49;;;;;;;14.07;8.45;;;;;;;-143.21;68.02;71239.41;5091464;28;20212;-83
2023/05/16 10:18:18;;;;;;;17.63;8.90;;;;;;;-143.21;68.52;71247.34;5093557;28;20208;-83
2023/05/16 10:20:48;;;;;;;17.85;9.00;;;;;;;-143.21;68.50;71253.28;5090376;28;20200;-82
2023/05/16 10:26:47;;;;;;;17.25;9.50;;;;;;;-143.21;67.77;71263.22;5013507;28;20285;-88
2023/05/16 10:29:15;;;;;;;14.82;9.00;;;;;;;-143.21;67.51;71269.16;5014434;28;20217;-88
2023/05/16 10:31:42;;;;;;;15.93;8.55;;;;;;;-143.21;68.05;71267.19;5074182;28;20205;-88
2023/05/16 10:34:09;;;;;;;14.75;9.23;;;;;;;-143.21;68.15;71265.19;5089785;28;20683;-89
2023/05/16 10:36:42;;;;;;;13.60;8.77;;;;;;;-143.21;68.30;71253.28;5082818;28;20212;-89
2023/05/16 10:39:15;;;;;;;13.73;9.35;;;;;;;-143.21;68.55;71249.34;5080163;28;20627;-90
2023/05/16 10:41:42;;;;;;;22.08;9.40;;;;;;;-143.21;68.46;71243.38;5096316;28;20242;-88
2023/05/16 10:44:16;;;;;;;20.73;10.35;;;;;;;-143.21;68.91;71233.47;5080478;28;20201;-86
2023/05/16 10:46:43;;;;;;;18.48;9.75;;;;;;;-143.21;69.24;71219.59;5082437;28;20581;-87
2023/05/16 10:49:30;;;;;;;20.60;10.55;;;;;;;-143.21;69.08;71215.63;5075607;28;20223;-88
2023/05/16 10:52:06;;;;;;;18.60;9.85;;;;;;;-143.21;69.08;71213.66;5081279;28;20204;-87
2023/05/16 10:54:39;;;;;;;16.95;9.30;;;;;;;-143.21;69.38;71207.69;5083322;28;20197;-83
2023/05/16 10:57:09;;;;;;;17.65;9.90;;;;;;;-143.21;68.98;71197.78;5084857;28;20203;-82
2023/05/16 10:59:45;;;;;;;15.20;10.57;;;;;;;-143.21;69.23;71181.94;5091114;28;20291;-81
2023/05/16 11:02:23;;;;;;;15.50;9.60;;;;;;;-143.21;70.52;71261.22;5085006;28;20189;-83
2023/05/16 11:05:03;;;;;;;24.25;10.20;;;;;;;-143.21;72.81;71348.47;5083574;28;20255;-86
2023/05/16 11:07:33;;;;;;;13.55;9.38;;;;;;;-143.21;73.87;71378.19;5083325;28;20269;-84
2023/05/16 11:10:07;;;;;;;16.92;10.25;;;;;;;-143.21;72.63;71403.97;5088927;28;20212;-83
2023/05/16 11:13:11;;;;;;;18.87;11.03;;;;;;;-143.21;74.98;71421.81;5088813;28;20197;-81